Kezdőlap
METAR-TAF:

METAR-TAF

Repülőterek :

Szimferopol, Oroszország

földrajzi szélesség: 45-03-08N, földrajzi hosszúság: 033-58-31E, magasság: 195 m

METAR: hiányzik

Idő: 00:37 (21:37 UTC)

Előrejelzés

A jelentés 1 órával és 42 perccel ezelõtt készült, 19:55 UTC
Az előrejelzés 18-én 21 óra UTC és 19-én 21 óra UTC között érvényes
Déli szél 10 kt
Látótávolság: 3100 m
Szakadozott felhőzet 1100 lábon
Szórványos felhőzet 2000 lábon, Cumulonimbus.
Párásság
Valószínűség 40% :
18-én 21 óra UTC és 19-én 07 óra UTC között ideiglenes
Látótávolság: 0500 m
Szakadozott felhőzet 200 lábon
Szórványos felhőzet 2000 lábon, Cumulonimbus.
köd
19-én 11 óra UTC és 19-én 13 óra UTC között fokozatosan kialakuló
Észak-északkeleti szél 10 kt

TAF: URFF 181955Z 1821/1921 19005MPS 3100 BR BKN011 SCT020CB PROB40 TEMPO 1821/1907 0500 FG BKN002 SCT020CB BECMG 1911/1913 03005MPS

Meteorológiai megfigyelések és előrejelzések több, mint 4000 repülőtéren (METAR és TAF jelentéseket).

A térképen piros és sárga pontok jelzik az elérhető meteorológiai állomásokat.

Mozgassa az egeret a pont fölött, hogy megjelenjen az állomás neve.

Azután kattintson az időjárási megfigyelések és előrejelzések megtekintéséhez.

A térkép megváltoztatása: kattintson a fekete keresztel jelölt zöld gombra ráközelítéshez, a vonallal jelölt zöld gombra távolításhoz, vagy a zöld nyilakra a szomszédos térképek eléréséhez.


METAR-TAF: